Home > Products > Valid Products > MTR

000
SAUS45 KMSO 281055
MTRP69
METAR KP69 281052Z AUTO 00000KT 13/11 A3006 RMK AO1 SLP156 T01330111





000
SAUS45 KMSO 280955
MTRP69
METAR KP69 280952Z AUTO 34004KT 14/12 A3004 RMK AO1 SLP150 T01390117





000
SAUS45 KMSO 280856
MTRP69
METAR KP69 280852Z AUTO 34003KT 14/12 A3004 RMK AO1 SLP149 T01440117
51007





000
SAUS45 KMSO 280755
MTRP69
METAR KP69 280752Z AUTO 33003KT 15/12 A3003 RMK AO1 SLP149 T01500122
403500100





000
SAUS45 KMSO 280655
MTRP69
METAR KP69 280652Z AUTO 34003KT 16/12 A3002 RMK AO1 SLP149 T01560122





000
SAUS45 KMSO 280555
MTRP69
METAR KP69 280552Z AUTO 00000KT 17/13 A3002 RMK AO1 SLP148 T01670128
10256 20167 51014





000
SAUS45 KMSO 280455
MTRP69
METAR KP69 280452Z AUTO 00000KT 18/13 A3001 RMK AO1 SLP149 T01780128





000
SAUS45 KMSO 280355
MTRP69
METAR KP69 280352Z AUTO 33003KT 19/13 A3000 RMK AO1 SLP146 T01890133





000
SAUS45 KMSO 280255
MTRP69
METAR KP69 280252Z AUTO 36003KT 19/13 A2997 RMK AO1 SLP140 T01940133
53012





000
SAUS45 KMSO 280153
MTRP69
METAR KP69 280152Z AUTO 35003KT 21/13 A2995 RMK AO1 SLP131 T02110133





000
SAUS45 KMSO 280054
MTRP69
METAR KP69 280052Z AUTO VRB04KT 23/13 A2993 RMK AO1 SLP124 T02330128





000
SAUS45 KMSO 272353
MTRP69
METAR KP69 272352Z AUTO 35003KT 26/13 A2994 RMK AO1 SLP123 T02560133
10350 20222 56017





000
SAUS45 KMSO 272253
MTRP69
METAR KP69 272252Z AUTO 31004KT 32/10 A2994 RMK AO1 SLP118 T03170100





000
SAUS45 KMSO 272154
MTRP69
METAR KP69 272152Z AUTO 33004KT 32/09 A2996 RMK AO1 SLP123 T03220089





000
SAUS45 KMSO 272053
MTRP69
METAR KP69 272052Z AUTO 35003KT 31/11 A2999 RMK AO1 SLP134 T03110106
56034





000
SAUS45 KMSO 271953
MTRP69
METAR KP69 271952Z AUTO 35003KT 28/11 A3002 RMK AO1 SLP147 T02780111





000
SAUS45 KMSO 271854
MTRP69
METAR KP69 271852Z AUTO 36004KT 24/11 A3006 RMK AO1 SLP161 T02440106





000
SAUS45 KMSO 271754
MTRP69
METAR KP69 271752Z AUTO 00000KT 22/10 A3009 RMK AO1 SLP175 T02220100
10222 20100 58028





000
SAUS45 KMSO 271653
MTRP69
METAR KP69 271652Z AUTO 00000KT 17/11 A3013 RMK AO1 SLP193 T01720106





000
SAUS45 KMSO 271553
MTRP69
METAR KP69 271552Z AUTO 00000KT 15/11 A3016 RMK AO1 SLP203 T01500106





000
SAUS45 KMSO 271453
MTRP69
METAR KP69 271452Z AUTO 00000KT 11/09 A3018 RMK AO1 SLP213 T01110094
51014





000
SAUS45 KMSO 271353
MTRP69
METAR KP69 271352Z AUTO 34003KT 10/09 A3018 RMK AO1 SLP211 T01000089





000
SAUS45 KMSO 271255
MTRP69
METAR KP69 271252Z AUTO 34003KT 11/09 A3016 RMK AO1 SLP202 T01060094





000
SAUS45 KMSO 271155
MTRP69
METAR KP69 271152Z AUTO 31003KT 11/09 A3014 RMK AO1 SLP193 T01110094
10150 20111 51007





000
SAUS45 KMSO 271055
MTRP69
METAR KP69 271052Z AUTO 00000KT 12/10 A3013 RMK AO1 SLP185 T01170100





000
SAUS45 KMSO 270955
MTRP69
METAR KP69 270952Z AUTO 33003KT 12/10 A3012 RMK AO1 SLP180 T01170100





000
SAUS45 KMSO 270955
MTRP69
METAR KP69 270952Z AUTO 33003KT 12/10 A3012 RMK AO1 SLP180 T01170100





000
SAUS45 KMSO 270855
MTRP69
METAR KP69 270852Z AUTO 32003KT 12/11 A3011 RMK AO1 SLP177 T01220106
53010





000
SAUS45 KMSO 270755
MTRP69
METAR KP69 270752Z AUTO 35003KT 13/11 A3010 RMK AO1 SLP176 T01330106
403220100





000
SAUS45 KMSO 270655
MTRP69
METAR KP69 270652Z AUTO 33005KT 14/11 A3009 RMK AO1 SLP174 T01390111





000
SAUS45 KMSO 270555
MTRP69
METAR KP69 270552Z AUTO 00000KT 15/12 A3008 RMK AO1 SLP174 T01500117
10244 20150 51021





000
SAUS45 KMSO 270455
MTRP69
METAR KP69 270452Z AUTO 35003KT 16/12 A3007 RMK AO1 SLP173 T01560117





000
SAUS45 KMSO 270354
MTRP69
METAR KP69 270352Z AUTO 33003KT 17/12 A3005 RMK AO1 SLP166 T01670117





000
SAUS45 KMSO 270254
MTRP69
METAR KP69 270252Z AUTO 00000KT 18/12 A3002 RMK AO1 SLP157 T01780117
53010





000
SAUS45 KMSO 270154
MTRP69
METAR KP69 270152Z AUTO 36003KT 19/12 A2999 RMK AO1 SLP148 T01940117





000
SAUS45 KMSO 270053
MTRP69
METAR KP69 270052Z AUTO 00000KT 22/11 A2998 RMK AO1 SLP143 T02170111





000
SAUS45 KMSO 262354
MTRP69
METAR KP69 262352Z AUTO 35003KT 24/12 A2999 RMK AO1 SLP141 T02440117
10322 20206 56016





000
SAUS45 KMSO 262254
MTRP69
METAR KP69 262252Z AUTO VRB03KT 29/09 A3000 RMK AO1 SLP140 T02940094





000
SAUS45 KMSO 262154
MTRP69
METAR KP69 262152Z AUTO 34004KT 31/07 A3001 RMK AO1 SLP144 T03060067





000
SAUS45 KMSO 262054
MTRP69
METAR KP69 262052Z AUTO 00000KT 31/07 A3004 RMK AO1 SLP150 T03060067
56028





000
SAUS45 KMSO 261954
MTRP69
METAR KP69 261952Z AUTO 36003KT 26/09 A3006 RMK AO1 SLP162 T02610094





000
SAUS45 KMSO 261854
MTRP69
METAR KP69 261852Z AUTO 35003KT 24/09 A3009 RMK AO1 SLP174 T02390094





000
SAUS45 KMSO 261753
MTRP69
METAR KP69 261752Z AUTO 35003KT 21/10 A3012 RMK AO1 SLP188 T02060100
10206 20100 58020





000
SAUS45 KMSO 261654
MTRP69
METAR KP69 261652Z AUTO 35003KT 16/10 A3015 RMK AO1 SLP201 T01610100





000
SAUS45 KMSO 261553
MTRP69
METAR KP69 261552Z AUTO 00000KT 14/10 A3017 RMK AO1 SLP208 T01440100





000
SAUS45 KMSO 261453
MTRP69
METAR KP69 261452Z AUTO 00000KT 11/09 A3018 RMK AO1 SLP214 T01110094
51014





000
SAUS45 KMSO 261353
MTRP69
METAR KP69 261352Z AUTO 35003KT 10/09 A3018 RMK AO1 SLP211 T01000089





000
SAUS45 KMSO 261253
MTRP69
METAR KP69 261252Z AUTO 32003KT 10/09 A3016 RMK AO1 SLP202 T01000089
$





000
SAUS45 KMSO 261153
MTRP69
METAR KP69 261152Z AUTO 00000KT 11/09 A3014 RMK AO1 SLP194 T01060094
10144 20106 53013 $





000
SAUS45 KMSO 261053
MTRP69
METAR KP69 261052Z AUTO 00000KT 11/09 A3012 RMK AO1 SLP183 T01110094
$





000
SAUS45 KMSO 260953
MTRP69
METAR KP69 260952Z AUTO 00000KT 12/10 A3011 RMK AO1 SLP178 T01170100
$





000
SAUS45 KMSO 260853
MTRP69
METAR KP69 260852Z AUTO 32003KT 12/11 A3010 RMK AO1 SLP175 T01220106
51020 $





000
SAUS45 KMSO 260754
MTRP69
METAR KP69 260752Z AUTO 32003KT 13/11 A3008 RMK AO1 SLP170 T01280106
403060100 $





000
SAUS45 KMSO 260654
MTRP69
METAR KP69 260652Z AUTO 33003KT 14/11 A3006 RMK AO1 SLP164 T01390111
$





000
SAUS45 KMSO 260554
MTRP69
METAR KP69 260552Z AUTO 34003KT 14/11 A3004 RMK AO1 SLP159 T01440111
10239 20144 51024 $





000
SAUS45 KMSO 260454
MTRP69
METAR KP69 260452Z AUTO 35003KT 16/12 A3002 RMK AO1 SLP155 T01560117
$





000
SAUS45 KMSO 260354
MTRP69
METAR KP69 260352Z AUTO 34005KT 16/12 A3000 RMK AO1 SLP150 T01610117
$





000
SAUS45 KMSO 260254
MTRP69
METAR KP69 260252Z AUTO 36003KT 17/13 A2996 RMK AO1 SLP139 T01720128
53019 $





000
SAUS45 KMSO 260154
MTRP69
METAR KP69 260152Z AUTO 00000KT 19/13 A2993 RMK AO1 SLP126 T01940133
$





000
SAUS45 KMSO 260054
MTRP69
METAR KP69 260052Z AUTO 00000KT 22/13 A2991 RMK AO1 SLP119 T02170128
$





000
SAUS45 KMSO 252353
MTRP69
METAR KP69 252352Z AUTO 00000KT 24/12 A2990 RMK AO1 SLP112 T02440117
10306 20206 56009 $





000
SAUS45 KMSO 252254
MTRP69
METAR KP69 252252Z AUTO VRB04KT 28/12 A2990 RMK AO1 SLP108 T02830117
$





000
SAUS45 KMSO 252154
MTRP69
METAR KP69 252152Z AUTO VRB04KT 28/09 A2991 RMK AO1 SLP109 T02830089
$





000
SAUS45 KMSO 252054
MTRP69
METAR KP69 252052Z AUTO 18004KT 28/09 A2993 RMK AO1 SLP118 T02780089
$





000
SAUS45 KMSO 251954
MTRP69
METAR KP69 251952Z AUTO 17004KT 26/09 A2995 RMK AO1 SLP125 T02560089
$





000
SAUS45 KMSO 251754
MTRP69
METAR KP69 251752Z AUTO 00000KT 21/09 A3000 RMK AO1 SLP145 T02060094
10206 20100 58022





000
SAUS45 KMSO 251653
MTRP69
METAR KP69 251652Z AUTO 36003KT 17/10 A3003 RMK AO1 SLP159 T01670100





000
SAUS45 KMSO 251553
MTRP69
METAR KP69 251552Z AUTO 00000KT 14/10 A3005 RMK AO1 SLP166 T01390100





000
SAUS45 KMSO 251453
MTRP69
METAR KP69 251452Z AUTO 00000KT 11/09 A3007 RMK AO1 SLP172 T01110094
51012





000
SAUS45 KMSO 251354
MTRP69
METAR KP69 251352Z AUTO 00000KT 10/09 A3006 RMK AO1 SLP170 T01000089





000
SAUS45 KMSO 251254
MTRP69
METAR KP69 251252Z AUTO 33005KT 11/09 A3005 RMK AO1 SLP164 T01060089





000
SAUS45 KMSO 251154
MTRP69
METAR KP69 251152Z AUTO 33003KT 11/09 A3003 RMK AO1 SLP155 T01060094
10144 20106 53005 $





    US Dept of Commerce
    National Oceanic and Atmospheric Administration
    National Weather Service
    1325 East West Highway
    Silver Spring, MD 20910
    Page Author: NWS Internet Services Team
Disclaimer
Information Quality
Credits
Glossary
Privacy Policy
Freedom of Information Act (FOIA)
About Us
Career Opportunities